Time;durP1;ratioP1;P1;durP2;ratioP2;P2;SDS_P1;SDS_P2;PMS_P1;PMS_P2;Temp;Humidity;BMP_temperature;BMP_pressure;BME280_temperature;BME280_humidity;BME280_pressure;Samples;Min_cycle;Max_cycle;Signal;HPM_P1;HPM_P2
2022/03/20 00:02:22;;;;;;;2.97;1.17;;;;;;;;;;5027947;28;20076;-58
2022/03/20 00:04:50;;;;;;;3.92;0.90;;;;;;;;;;5007901;28;20052;-58
2022/03/20 00:07:16;;;;;;;5.13;1.40;;;;;;;;;;5008467;28;20135;-58
2022/03/20 00:09:44;;;;;;;3.17;1.20;;;;;;;;;;5004998;28;20049;-58
2022/03/20 00:12:10;;;;;;;3.00;1.20;;;;;;;;;;5027662;28;20059;-58
2022/03/20 00:14:37;;;;;;;4.40;1.30;;;;;;;;;;5012875;28;20058;-59
2022/03/20 00:17:04;;;;;;;1.92;0.95;;;;;;;;;;5007910;28;20149;-59
2022/03/20 00:19:32;;;;;;;5.55;1.30;;;;;;;;;;5008903;28;20045;-59
2022/03/20 00:22:03;;;;;;;4.22;1.25;;;;;;;;;;5010022;28;20136;-59
2022/03/20 00:24:29;;;;;;;4.55;1.65;;;;;;;;;;5002981;28;20054;-61
2022/03/20 00:26:57;;;;;;;4.97;1.60;;;;;;;;;;5008035;28;20061;-58
2022/03/20 00:29:24;;;;;;;5.18;1.17;;;;;;;;;;4985933;28;20165;-59
2022/03/20 00:31:51;;;;;;;5.43;1.73;;;;;;;;;;4979770;28;20059;-59
2022/03/20 00:34:18;;;;;;;2.63;1.20;;;;;;;;;;4992535;28;20054;-59
2022/03/20 00:36:44;;;;;;;8.32;1.67;;;;;;;;;;5005484;28;20065;-60
2022/03/20 00:39:13;;;;;;;4.82;1.80;;;;;;;;;;5007481;28;20068;-60
2022/03/20 00:41:41;;;;;;;4.45;1.90;;;;;;;;;;5018796;28;20059;-59
2022/03/20 00:44:09;;;;;;;7.97;1.67;;;;;;;;;;5027137;28;20145;-60
2022/03/20 00:46:35;;;;;;;6.47;1.95;;;;;;;;;;5020945;28;20111;-60
2022/03/20 00:49:02;;;;;;;5.30;1.50;;;;;;;;;;5027231;28;20049;-58
2022/03/20 00:51:28;;;;;;;4.13;1.27;;;;;;;;;;5014581;28;20053;-58
2022/03/20 00:53:55;;;;;;;3.42;1.58;;;;;;;;;;5007505;28;20065;-58
2022/03/20 00:56:23;;;;;;;5.68;1.70;;;;;;;;;;5010461;28;20077;-58
2022/03/20 00:58:53;;;;;;;5.57;1.95;;;;;;;;;;5027166;28;20061;-60
2022/03/20 01:01:21;;;;;;;3.67;1.42;;;;;;;;;;5019743;28;20117;-58
2022/03/20 01:03:47;;;;;;;5.63;1.55;;;;;;;;;;5027064;28;20053;-58
2022/03/20 01:06:14;;;;;;;6.65;1.60;;;;;;;;;;5015357;28;20054;-58
2022/03/20 01:08:42;;;;;;;5.55;2.20;;;;;;;;;;5007383;28;20054;-58
2022/03/20 01:11:09;;;;;;;6.13;2.38;;;;;;;;;;5001760;28;20061;-59
2022/03/20 01:13:37;;;;;;;7.85;2.42;;;;;;;;;;5007265;28;20066;-59
2022/03/20 01:16:04;;;;;;;5.25;1.67;;;;;;;;;;5001620;28;20080;-60
2022/03/20 01:18:30;;;;;;;9.07;2.67;;;;;;;;;;5007749;28;20144;-58
2022/03/20 01:20:58;;;;;;;7.68;2.95;;;;;;;;;;5007394;28;20057;-59
2022/03/20 01:23:24;;;;;;;6.97;2.70;;;;;;;;;;5001451;28;20128;-59
2022/03/20 01:25:51;;;;;;;8.98;3.50;;;;;;;;;;5007214;28;20057;-59
2022/03/20 01:28:19;;;;;;;9.90;3.53;;;;;;;;;;5001687;28;20108;-60
2022/03/20 01:30:47;;;;;;;8.25;3.25;;;;;;;;;;5007495;28;20037;-60
2022/03/20 01:33:14;;;;;;;9.02;2.47;;;;;;;;;;5018168;28;20058;-59
2022/03/20 01:35:40;;;;;;;8.13;2.80;;;;;;;;;;5007081;28;20062;-59
2022/03/20 01:38:07;;;;;;;10.27;4.35;;;;;;;;;;5001480;28;20046;-58
2022/03/20 01:40:34;;;;;;;11.20;3.40;;;;;;;;;;5006287;28;20100;-59
2022/03/20 01:43:01;;;;;;;10.00;4.00;;;;;;;;;;5004879;28;20045;-59
2022/03/20 01:45:35;;;;;;;7.55;2.50;;;;;;;;;;5010118;28;20061;-59
2022/03/20 01:48:04;;;;;;;12.15;3.80;;;;;;;;;;5011295;28;20042;-60
2022/03/20 01:50:32;;;;;;;11.98;3.70;;;;;;;;;;5030157;28;20060;-58
2022/03/20 01:52:59;;;;;;;10.85;3.05;;;;;;;;;;5037046;28;20088;-58
2022/03/20 01:55:29;;;;;;;5.00;2.50;;;;;;;;;;5030116;28;20049;-59
2022/03/20 01:57:56;;;;;;;6.45;2.85;;;;;;;;;;5023284;28;20097;-58
2022/03/20 02:00:25;;;;;;;6.70;2.67;;;;;;;;;;5030363;28;20140;-58
2022/03/20 02:02:52;;;;;;;9.88;2.95;;;;;;;;;;5024906;28;20115;-58
2022/03/20 02:05:21;;;;;;;7.85;3.33;;;;;;;;;;5046198;28;20064;-58
2022/03/20 02:07:47;;;;;;;8.85;3.45;;;;;;;;;;5045906;28;20411;-59
2022/03/20 02:10:14;;;;;;;9.23;3.35;;;;;;;;;;5040839;28;20084;-58
2022/03/20 02:12:43;;;;;;;10.13;3.08;;;;;;;;;;5046753;28;20065;-59
2022/03/20 02:15:12;;;;;;;10.32;3.05;;;;;;;;;;5040640;28;20053;-60
2022/03/20 02:17:40;;;;;;;7.95;2.80;;;;;;;;;;5045715;28;20091;-60
2022/03/20 02:20:09;;;;;;;5.47;2.08;;;;;;;;;;5023415;28;20100;-59
2022/03/20 02:22:40;;;;;;;7.28;2.63;;;;;;;;;;5046567;28;20129;-58
2022/03/20 02:25:08;;;;;;;9.50;2.50;;;;;;;;;;5039579;28;20057;-58
2022/03/20 02:27:38;;;;;;;3.90;1.75;;;;;;;;;;5045320;28;20061;-59
2022/03/20 02:30:12;;;;;;;8.45;2.13;;;;;;;;;;5039860;28;20112;-59
2022/03/20 02:32:40;;;;;;;8.65;3.00;;;;;;;;;;5046086;28;20064;-59
2022/03/20 02:35:11;;;;;;;7.07;2.85;;;;;;;;;;5033074;28;20061;-60
2022/03/20 02:37:39;;;;;;;7.45;2.28;;;;;;;;;;5045936;28;20107;-60
2022/03/20 02:40:07;;;;;;;5.97;2.30;;;;;;;;;;5040220;28;20056;-60
2022/03/20 02:42:35;;;;;;;7.32;2.15;;;;;;;;;;5029732;28;20104;-57
2022/03/20 02:45:04;;;;;;;12.00;3.13;;;;;;;;;;5038588;28;20049;-60
2022/03/20 02:47:31;;;;;;;5.32;2.40;;;;;;;;;;5029393;28;20053;-59
2022/03/20 02:49:59;;;;;;;7.00;2.58;;;;;;;;;;5022892;28;20430;-60
2022/03/20 02:52:28;;;;;;;4.80;2.35;;;;;;;;;;5029490;28;20064;-59
2022/03/20 02:54:54;;;;;;;;;;;;;;;;;;5023871;28;20068;-60
2022/03/20 02:57:22;;;;;;;6.70;2.35;;;;;;;;;;5028937;28;19924;-60
2022/03/20 02:59:49;;;;;;;9.15;2.60;;;;;;;;;;5028940;28;20050;-60
2022/03/20 03:02:22;;;;;;;7.45;3.13;;;;;;;;;;5026052;23;20124;-58
2022/03/20 03:05:08;;;;;;;6.93;2.30;;;;;;;;;;4988871;28;20766;-60
2022/03/20 03:10:55;;;;;;;6.50;3.08;;;;;;;;;;4998772;28;20045;-57
2022/03/20 03:13:09;;;;;;;9.73;3.05;;;;;;;;;;5011421;28;20065;-58
2022/03/20 03:15:36;;;;;;;9.57;3.10;;;;;;;;;;5011667;28;20406;-58
2022/03/20 03:18:03;;;;;;;8.27;2.65;;;;;;;;;;5005223;28;20088;-58
2022/03/20 03:20:30;;;;;;;10.15;2.63;;;;;;;;;;5012416;28;20132;-58
2022/03/20 03:22:56;;;;;;;6.68;2.53;;;;;;;;;;5004097;28;20155;-58
2022/03/20 03:25:23;;;;;;;8.95;2.58;;;;;;;;;;5011366;28;20049;-58
2022/03/20 03:27:50;;;;;;;9.95;3.38;;;;;;;;;;5002502;28;20057;-59
2022/03/20 03:30:18;;;;;;;6.25;2.53;;;;;;;;;;5011813;28;20045;-60
2022/03/20 03:32:45;;;;;;;11.15;2.88;;;;;;;;;;5002687;28;20072;-59
2022/03/20 03:37:57;;;;;;;6.43;2.83;;;;;;;;;;5000366;28;20458;-58
2022/03/20 03:40:25;;;;;;;7.00;2.75;;;;;;;;;;5010679;28;20407;-58
2022/03/20 03:42:53;;;;;;;7.57;2.50;;;;;;;;;;5001734;28;20048;-58
2022/03/20 03:45:23;;;;;;;5.53;2.17;;;;;;;;;;5011096;28;20053;-59
2022/03/20 03:47:50;;;;;;;8.70;3.38;;;;;;;;;;5003392;28;20084;-59
2022/03/20 03:50:16;;;;;;;8.52;3.38;;;;;;;;;;5010318;28;20057;-58
2022/03/20 03:52:43;;;;;;;8.25;2.67;;;;;;;;;;5011927;28;20052;-60
2022/03/20 03:55:10;;;;;;;12.52;3.75;;;;;;;;;;5007717;28;20057;-57
2022/03/20 03:57:36;;;;;;;12.63;4.35;;;;;;;;;;5011449;28;20049;-58
2022/03/20 04:00:03;;;;;;;9.35;3.80;;;;;;;;;;5006073;28;20068;-58
2022/03/20 04:02:31;;;;;;;8.75;2.67;;;;;;;;;;4995771;28;20111;-59
2022/03/20 04:04:58;;;;;;;8.02;3.20;;;;;;;;;;4999515;28;20061;-58
2022/03/20 04:07:26;;;;;;;9.68;3.33;;;;;;;;;;5010529;28;20049;-58
2022/03/20 04:09:52;;;;;;;12.32;3.63;;;;;;;;;;5003179;28;20064;-58
2022/03/20 04:12:19;;;;;;;10.90;3.85;;;;;;;;;;5013074;28;20056;-58
2022/03/20 04:14:46;;;;;;;8.57;2.92;;;;;;;;;;5003616;28;20099;-60
2022/03/20 04:17:14;;;;;;;9.38;3.70;;;;;;;;;;5006786;28;20449;-59
2022/03/20 04:19:42;;;;;;;14.15;3.75;;;;;;;;;;5011903;28;20056;-59
2022/03/20 04:22:09;;;;;;;10.98;3.70;;;;;;;;;;4998240;28;20075;-58
2022/03/20 04:24:36;;;;;;;1.85;0.68;;;;;;;;;;5027777;28;20207;-58
2022/03/20 04:27:03;;;;;;;11.15;3.92;;;;;;;;;;4997789;28;20132;-59
2022/03/20 04:29:30;;;;;;;11.13;4.25;;;;;;;;;;5012458;28;20064;-58
2022/03/20 04:31:59;;;;;;;23.80;4.28;;;;;;;;;;5000402;28;20053;-58
2022/03/20 04:34:27;;;;;;;9.75;3.80;;;;;;;;;;5006423;28;20060;-59
2022/03/20 04:36:56;;;;;;;;;;;;;;;;;;5011094;28;20084;-58
2022/03/20 04:39:24;;;;;;;11.82;4.10;;;;;;;;;;5005239;28;19921;-58
2022/03/20 04:41:51;;;;;;;9.27;3.35;;;;;;;;;;5012550;28;20077;-58
2022/03/20 04:44:19;;;;;;;17.52;4.40;;;;;;;;;;5003031;28;20057;-57
2022/03/20 04:46:46;;;;;;;15.07;5.57;;;;;;;;;;5013115;28;20049;-58
2022/03/20 05:00:20;;;;;;;11.73;4.70;;;;;;;;;;5006529;28;20054;-59
2022/03/20 05:02:50;;;;;;;15.27;5.28;;;;;;;;;;5005944;28;20049;-60
2022/03/20 05:05:17;;;;;;;9.57;3.45;;;;;;;;;;4989456;28;20414;-60
2022/03/20 05:07:44;;;;;;;13.60;5.05;;;;;;;;;;4967790;28;20051;-60
2022/03/20 05:15:40;;;;;;;10.60;4.32;;;;;;;;;;4991046;28;20148;-60
2022/03/20 05:18:08;;;;;;;15.50;5.60;;;;;;;;;;4981333;28;20057;-59
2022/03/20 05:20:34;;;;;;;6.65;2.92;;;;;;;;;;4974966;28;20054;-58
2022/03/20 05:23:01;;;;;;;12.40;3.40;;;;;;;;;;4975279;28;20054;-60
2022/03/20 05:25:29;;;;;;;15.13;4.75;;;;;;;;;;4993483;28;20053;-59
2022/03/20 05:27:56;;;;;;;9.48;3.33;;;;;;;;;;5013428;28;20057;-59
2022/03/20 05:30:23;;;;;;;10.63;4.38;;;;;;;;;;4993027;28;20060;-60
2022/03/20 05:32:50;;;;;;;13.63;4.47;;;;;;;;;;4993734;28;20058;-59
2022/03/20 05:35:17;;;;;;;17.02;5.28;;;;;;;;;;4987919;28;20062;-59
2022/03/20 05:37:44;;;;;;;20.08;5.68;;;;;;;;;;4993866;28;20053;-60
2022/03/20 05:40:12;;;;;;;13.70;5.15;;;;;;;;;;4987798;28;20049;-60
2022/03/20 05:42:41;;;;;;;10.05;3.47;;;;;;;;;;4992893;28;20054;-60
2022/03/20 05:45:10;;;;;;;10.15;4.15;;;;;;;;;;4987741;28;20046;-59
2022/03/20 05:47:36;;;;;;;;;;;;;;;;;;4993611;28;20050;-60
2022/03/20 05:50:03;;;;;;;8.98;3.75;;;;;;;;;;4989607;28;19925;-58
2022/03/20 05:52:31;;;;;;;14.88;5.72;;;;;;;;;;5009906;28;20136;-59
2022/03/20 05:54:58;;;;;;;17.60;5.78;;;;;;;;;;5003975;28;20046;-58
2022/03/20 06:00:16;;;;;;;11.77;5.07;;;;;;;;;;4989259;28;20054;-57
2022/03/20 06:02:43;;;;;;;12.23;5.38;;;;;;;;;;4993335;28;20451;-58
2022/03/20 06:05:09;;;;;;;11.52;3.92;;;;;;;;;;5022081;28;20065;-57
2022/03/20 06:07:39;;;;;;;12.73;4.75;;;;;;;;;;5012197;28;20053;-57
2022/03/20 06:10:08;;;;;;;13.02;4.90;;;;;;;;;;5013151;28;20057;-58
2022/03/20 06:12:37;;;;;;;14.73;4.90;;;;;;;;;;5001289;28;20052;-57
2022/03/20 06:15:04;;;;;;;;;;;;;;;;;;5015628;28;20502;-57
2022/03/20 06:17:32;;;;;;;11.60;4.22;;;;;;;;;;5005095;28;19925;-59
2022/03/20 06:20:00;;;;;;;18.52;5.95;;;;;;;;;;5012747;28;20065;-60
2022/03/20 06:22:28;;;;;;;17.63;5.47;;;;;;;;;;5006561;28;20049;-57
2022/03/20 06:24:54;;;;;;;15.13;5.47;;;;;;;;;;5012785;28;20061;-60
2022/03/20 06:27:21;;;;;;;13.80;4.80;;;;;;;;;;5005755;28;20319;-62
2022/03/20 06:29:48;;;;;;;14.40;5.50;;;;;;;;;;5012004;28;20080;-62
2022/03/20 06:32:15;;;;;;;19.95;6.45;;;;;;;;;;5006668;28;20053;-61
2022/03/20 06:34:43;;;;;;;11.73;4.97;;;;;;;;;;5011516;28;20056;-60
2022/03/20 06:37:10;;;;;;;12.98;5.78;;;;;;;;;;5009650;28;20152;-61
2022/03/20 06:39:37;;;;;;;15.07;5.25;;;;;;;;;;5031299;28;20060;-60
2022/03/20 06:42:04;;;;;;;13.70;5.90;;;;;;;;;;5003840;28;20054;-60
2022/03/20 06:44:31;;;;;;;17.50;6.75;;;;;;;;;;4992797;28;20062;-60
2022/03/20 06:46:58;;;;;;;15.30;5.97;;;;;;;;;;4992954;28;20110;-62
2022/03/20 06:49:25;;;;;;;13.45;6.38;;;;;;;;;;5032531;28;20052;-62
2022/03/20 06:51:53;;;;;;;17.80;5.18;;;;;;;;;;5026907;28;20127;-63
2022/03/20 06:54:20;;;;;;;20.55;6.97;;;;;;;;;;4993009;28;20046;-62
2022/03/20 06:56:46;;;;;;;15.95;5.97;;;;;;;;;;4992731;28;20054;-62
2022/03/20 06:59:15;;;;;;;12.30;5.45;;;;;;;;;;5008527;28;20057;-58
2022/03/20 07:01:42;;;;;;;17.38;5.97;;;;;;;;;;5015681;28;20516;-58
2022/03/20 07:04:09;;;;;;;22.02;6.15;;;;;;;;;;5007747;28;20057;-60
2022/03/20 07:06:36;;;;;;;16.83;6.38;;;;;;;;;;5014838;28;20053;-60
2022/03/20 07:09:04;;;;;;;17.20;5.85;;;;;;;;;;5009175;28;20053;-60
2022/03/20 07:11:33;;;;;;;10.45;4.30;;;;;;;;;;5015671;28;20244;-60
2022/03/20 07:14:00;;;;;;;14.02;6.30;;;;;;;;;;5008834;28;20057;-60
2022/03/20 07:16:31;;;;;;;15.18;5.55;;;;;;;;;;5014808;28;20108;-58
2022/03/20 07:18:58;;;;;;;15.18;5.30;;;;;;;;;;5008929;28;20077;-60
2022/03/20 07:21:25;;;;;;;12.63;4.53;;;;;;;;;;5015445;28;20499;-59
2022/03/20 07:23:54;;;;;;;16.40;6.35;;;;;;;;;;5005960;28;20064;-59
2022/03/20 07:31:52;;;;;;;9.88;4.50;;;;;;;;;;5014265;28;20090;-60
2022/03/20 07:34:19;;;;;;;15.57;6.32;;;;;;;;;;5007816;28;20049;-60
2022/03/20 07:36:46;;;;;;;12.57;5.30;;;;;;;;;;5015440;28;20064;-58
2022/03/20 07:39:13;;;;;;;11.60;5.07;;;;;;;;;;5009016;28;20083;-58
2022/03/20 07:41:40;;;;;;;17.30;7.60;;;;;;;;;;5015858;28;20088;-59
2022/03/20 07:44:08;;;;;;;17.27;6.97;;;;;;;;;;5008752;28;20060;-59
2022/03/20 07:46:36;;;;;;;18.20;6.70;;;;;;;;;;5013626;28;20053;-59
2022/03/20 07:49:02;;;;;;;16.27;6.15;;;;;;;;;;5010834;28;20151;-58
2022/03/20 07:51:31;;;;;;;14.75;5.78;;;;;;;;;;5012960;28;20050;-58
2022/03/20 07:53:57;;;;;;;13.88;5.85;;;;;;;;;;5015034;28;20092;-59
2022/03/20 07:56:25;;;;;;;15.88;6.55;;;;;;;;;;4996797;28;20144;-61
2022/03/20 07:58:54;;;;;;;14.15;5.55;;;;;;;;;;5012628;28;20589;-59
2022/03/20 08:01:20;;;;;;;;;;;;;;;;;;5000902;28;20061;-58
2022/03/20 08:03:49;;;;;;;16.45;5.57;;;;;;;;;;5008044;28;19932;-58
2022/03/20 08:06:16;;;;;;;14.50;6.40;;;;;;;;;;5000774;28;20072;-58
2022/03/20 08:08:43;;;;;;;21.60;7.78;;;;;;;;;;5012177;28;20087;-57
2022/03/20 08:11:11;;;;;;;19.13;7.03;;;;;;;;;;5003020;28;20073;-58
2022/03/20 08:13:43;;;;;;;20.38;6.47;;;;;;;;;;5013436;28;20303;-59
2022/03/20 08:16:12;;;;;;;14.73;6.10;;;;;;;;;;5002909;28;20061;-58
2022/03/20 08:18:39;;;;;;;19.65;6.32;;;;;;;;;;5012830;28;20073;-59
2022/03/20 08:21:09;;;;;;;15.40;6.60;;;;;;;;;;5012553;28;20038;-58
2022/03/20 08:23:37;;;;;;;18.95;7.00;;;;;;;;;;5003968;28;20053;-61
2022/03/20 08:26:07;;;;;;;14.23;6.38;;;;;;;;;;5013217;28;20092;-57
2022/03/20 08:28:36;;;;;;;17.95;7.45;;;;;;;;;;5004420;28;20096;-59
2022/03/20 08:31:03;;;;;;;14.40;5.47;;;;;;;;;;5014235;28;20057;-58
2022/03/20 08:33:30;;;;;;;15.38;6.53;;;;;;;;;;5005653;28;20052;-58
2022/03/20 08:35:57;;;;;;;18.52;7.45;;;;;;;;;;5010103;28;20053;-57
2022/03/20 08:38:25;;;;;;;18.83;7.72;;;;;;;;;;5011577;28;20057;-59
2022/03/20 08:40:53;;;;;;;18.40;7.78;;;;;;;;;;5002667;28;20049;-57
2022/03/20 08:43:20;;;;;;;22.63;7.55;;;;;;;;;;5013552;28;20057;-58
2022/03/20 08:45:47;;;;;;;20.48;8.45;;;;;;;;;;5004111;28;20053;-58
2022/03/20 08:48:13;;;;;;;21.25;7.70;;;;;;;;;;5012836;28;20053;-58
2022/03/20 08:50:40;;;;;;;19.45;7.57;;;;;;;;;;5007658;28;20072;-58
2022/03/20 08:53:11;;;;;;;17.30;6.35;;;;;;;;;;5016294;28;20055;-57
2022/03/20 08:55:40;;;;;;;12.27;5.45;;;;;;;;;;5017900;28;20050;-58
2022/03/20 08:58:07;;;;;;;15.60;7.70;;;;;;;;;;5007261;28;20054;-58
2022/03/20 09:00:34;;;;;;;18.55;6.78;;;;;;;;;;5017938;28;20042;-57
2022/03/20 09:03:01;;;;;;;21.20;8.63;;;;;;;;;;5007296;28;20054;-57
2022/03/20 09:05:28;;;;;;;13.93;5.93;;;;;;;;;;5016707;28;20053;-57
2022/03/20 09:07:57;;;;;;;20.30;7.40;;;;;;;;;;5006812;28;20061;-58
2022/03/20 09:10:24;;;;;;;15.27;6.20;;;;;;;;;;5016862;28;20045;-58
2022/03/20 09:12:55;;;;;;;21.17;8.55;;;;;;;;;;5012975;28;20148;-59
2022/03/20 09:15:23;;;;;;;16.98;6.88;;;;;;;;;;5008252;28;20053;-59
2022/03/20 09:20:35;;;;;;;19.90;7.03;;;;;;;;;;4996383;28;20483;-58
2022/03/20 09:23:01;;;;;;;17.40;6.95;;;;;;;;;;5015255;28;20061;-60
2022/03/20 09:25:28;;;;;;;14.43;6.05;;;;;;;;;;5003788;28;20140;-59
2022/03/20 09:27:56;;;;;;;16.20;6.70;;;;;;;;;;5015697;28;20061;-60
2022/03/20 09:30:23;;;;;;;23.33;8.38;;;;;;;;;;5009562;28;20064;-58
2022/03/20 09:32:50;;;;;;;15.45;6.32;;;;;;;;;;5013275;28;20115;-61
2022/03/20 09:35:17;;;;;;;20.38;7.30;;;;;;;;;;5015364;28;20053;-61
2022/03/20 09:37:45;;;;;;;15.85;6.22;;;;;;;;;;5019132;28;20059;-61
2022/03/20 09:40:12;;;;;;;97.72;31.30;;;;;;;;;;5014717;28;20050;-60
2022/03/20 09:42:39;;;;;;;31.25;11.98;;;;;;;;;;5002694;28;20650;-58
2022/03/20 09:45:09;;;;;;;24.95;9.57;;;;;;;;;;5006885;28;20549;-59
2022/03/20 09:47:35;;;;;;;27.08;10.05;;;;;;;;;;5017393;28;20168;-59
2022/03/20 09:50:02;;;;;;;29.08;9.35;;;;;;;;;;5007897;28;20537;-61
2022/03/20 09:52:29;;;;;;;25.52;10.52;;;;;;;;;;5016959;28;20072;-59
2022/03/20 09:54:58;;;;;;;21.88;9.35;;;;;;;;;;5004143;28;20061;-60
2022/03/20 09:57:27;;;;;;;25.45;9.48;;;;;;;;;;5014852;28;20053;-60
2022/03/20 09:59:53;;;;;;;;;;;;;;;;;;5003153;28;20135;-58
2022/03/20 10:02:26;;;;;;;13.48;6.13;;;;;;;;;;5014121;28;19925;-59
2022/03/20 10:04:53;;;;;;;24.58;7.65;;;;;;;;;;5006007;28;20056;-59
2022/03/20 10:07:23;;;;;;;17.02;5.43;;;;;;;;;;5010535;28;20063;-61
2022/03/20 10:10:09;;;;;;;21.83;7.50;;;;;;;;;;5012103;28;20064;-61
2022/03/20 10:12:37;;;;;;;24.48;9.40;;;;;;;;;;5006570;28;20065;-58
2022/03/20 10:15:05;;;;;;;20.25;8.80;;;;;;;;;;5015542;28;20235;-60
2022/03/20 10:17:33;;;;;;;25.77;9.68;;;;;;;;;;5002486;28;20053;-59
2022/03/20 10:20:12;;;;;;;23.08;9.48;;;;;;;;;;5014828;28;20045;-58
2022/03/20 10:22:41;;;;;;;23.40;7.80;;;;;;;;;;5003428;28;20057;-58
2022/03/20 10:25:09;;;;;;;23.48;8.57;;;;;;;;;;5011350;28;20052;-59
2022/03/20 10:27:37;;;;;;;19.58;7.97;;;;;;;;;;5006455;28;20512;-60
2022/03/20 10:30:08;;;;;;;20.83;7.45;;;;;;;;;;5013553;28;20056;-62
2022/03/20 10:32:36;;;;;;;12.02;4.45;;;;;;;;;;5016579;28;20060;-57
2022/03/20 10:35:04;;;;;;;21.77;8.45;;;;;;;;;;5000866;28;20049;-58
2022/03/20 10:37:44;;;;;;;21.42;9.43;;;;;;;;;;5014391;28;20125;-58
2022/03/20 10:40:12;;;;;;;16.20;8.27;;;;;;;;;;5000376;28;20049;-58
2022/03/20 10:42:40;;;;;;;21.30;7.78;;;;;;;;;;5013155;28;20061;-58
2022/03/20 10:45:08;;;;;;;23.90;9.10;;;;;;;;;;5004595;28;20450;-58
2022/03/20 10:47:48;;;;;;;24.52;10.02;;;;;;;;;;5010075;28;20057;-58
2022/03/20 10:50:14;;;;;;;29.88;8.88;;;;;;;;;;5013841;28;20068;-59
2022/03/20 10:52:41;;;;;;;25.83;9.20;;;;;;;;;;5003539;28;20052;-61
2022/03/20 10:55:12;;;;;;;17.42;6.65;;;;;;;;;;5013472;28;20062;-62
2022/03/20 10:57:39;;;;;;;16.38;7.07;;;;;;;;;;4999580;28;20053;-63
2022/03/20 11:00:10;;;;;;;26.13;8.82;;;;;;;;;;5008720;28;20122;-61
2022/03/20 11:02:39;;;;;;;22.15;9.07;;;;;;;;;;4994829;28;20083;-61
2022/03/20 11:05:08;;;;;;;21.85;8.93;;;;;;;;;;5029987;28;20052;-60
2022/03/20 11:07:35;;;;;;;19.20;8.20;;;;;;;;;;5007601;28;20049;-63
2022/03/20 11:10:04;;;;;;;14.80;6.97;;;;;;;;;;5013103;28;20061;-60
2022/03/20 11:12:35;;;;;;;17.33;7.43;;;;;;;;;;5011575;28;20056;-63
2022/03/20 11:15:03;;;;;;;26.10;10.68;;;;;;;;;;5006004;28;20053;-63
2022/03/20 11:17:37;;;;;;;19.65;8.07;;;;;;;;;;5013829;28;20462;-60
2022/03/20 11:20:07;;;;;;;22.23;9.77;;;;;;;;;;5000534;28;20049;-61
2022/03/20 11:22:37;;;;;;;20.30;8.00;;;;;;;;;;5012154;28;20045;-63
2022/03/20 11:25:06;;;;;;;26.38;10.38;;;;;;;;;;5000693;28;20500;-64
2022/03/20 11:27:34;;;;;;;23.17;8.82;;;;;;;;;;5013800;28;20085;-63
2022/03/20 11:30:02;;;;;;;23.35;9.70;;;;;;;;;;5010500;28;20068;-64
2022/03/20 11:32:29;;;;;;;21.53;8.33;;;;;;;;;;5004010;28;20049;-60
2022/03/20 11:34:56;;;;;;;20.40;8.02;;;;;;;;;;5028095;28;20053;-62
2022/03/20 11:37:41;;;;;;;26.05;10.13;;;;;;;;;;4998812;28;20053;-64
2022/03/20 11:40:08;;;;;;;23.23;9.88;;;;;;;;;;4998590;28;20164;-63
2022/03/20 11:42:36;;;;;;;26.80;10.60;;;;;;;;;;4997104;28;20061;-61
2022/03/20 11:45:10;;;;;;;17.77;8.07;;;;;;;;;;5011594;28;20136;-63
2022/03/20 11:47:38;;;;;;;26.83;9.52;;;;;;;;;;5000299;28;20119;-64
2022/03/20 11:50:12;;;;;;;21.17;9.60;;;;;;;;;;5003995;28;20066;-58
2022/03/20 11:52:46;;;;;;;23.88;8.77;;;;;;;;;;4975665;28;20177;-58
2022/03/20 11:55:27;;;;;;;22.65;9.27;;;;;;;;;;4999041;28;20104;-57
2022/03/20 11:57:54;;;;;;;21.90;9.43;;;;;;;;;;5013219;28;20060;-59
2022/03/20 12:00:23;;;;;;;20.38;8.20;;;;;;;;;;5000658;28;20053;-58
2022/03/20 12:02:52;;;;;;;26.63;10.45;;;;;;;;;;5010834;28;20107;-58
2022/03/20 12:05:22;;;;;;;21.90;8.38;;;;;;;;;;5000495;28;20064;-58
2022/03/20 12:07:55;;;;;;;25.65;10.52;;;;;;;;;;5002358;28;20091;-59
2022/03/20 12:10:25;;;;;;;26.88;10.75;;;;;;;;;;5010664;28;20053;-58
2022/03/20 12:12:59;;;;;;;23.40;10.25;;;;;;;;;;5003065;28;20159;-59
2022/03/20 12:15:29;;;;;;;16.02;6.57;;;;;;;;;;5001466;28;20056;-60
2022/03/20 12:18:05;;;;;;;23.83;9.55;;;;;;;;;;4999799;28;20079;-59
2022/03/20 12:20:59;;;;;;;26.73;11.65;;;;;;;;;;5010449;28;20058;-58
2022/03/20 12:23:43;;;;;;;19.90;8.75;;;;;;;;;;5000998;28;20062;-58
2022/03/20 12:26:33;;;;;;;26.10;10.00;;;;;;;;;;5009676;28;20180;-58
2022/03/20 12:29:18;;;;;;;21.33;8.93;;;;;;;;;;4989198;28;20064;-59
2022/03/20 12:31:54;;;;;;;27.77;10.27;;;;;;;;;;4982855;28;20522;-58
2022/03/20 12:34:21;;;;;;;23.10;9.02;;;;;;;;;;5000566;28;20045;-58
2022/03/20 12:36:48;;;;;;;22.67;9.32;;;;;;;;;;5010780;28;20096;-59
2022/03/20 12:39:36;;;;;;;30.85;11.68;;;;;;;;;;5017421;28;20049;-58
2022/03/20 12:42:15;;;;;;;25.88;11.15;;;;;;;;;;5012726;28;20057;-58
2022/03/20 12:44:44;;;;;;;26.75;12.18;;;;;;;;;;5005250;28;20050;-60
2022/03/20 12:47:11;;;;;;;24.85;10.23;;;;;;;;;;5010916;28;20060;-59
2022/03/20 12:49:40;;;;;;;31.33;13.55;;;;;;;;;;5006581;28;20046;-58
2022/03/20 12:52:08;;;;;;;23.83;9.68;;;;;;;;;;5011689;28;20061;-60
2022/03/20 12:54:36;;;;;;;25.70;10.45;;;;;;;;;;5005383;28;20056;-58
2022/03/20 12:57:04;;;;;;;25.10;10.32;;;;;;;;;;5010598;28;20057;-61
2022/03/20 12:59:31;;;;;;;19.15;7.68;;;;;;;;;;5004089;28;20079;-60
2022/03/20 13:02:04;;;;;;;26.40;10.70;;;;;;;;;;5010043;28;20049;-58
2022/03/20 13:04:31;;;;;;;26.33;10.73;;;;;;;;;;4990381;28;20050;-59
2022/03/20 13:06:58;;;;;;;27.00;11.23;;;;;;;;;;4991426;28;20057;-61
2022/03/20 13:09:28;;;;;;;33.78;12.18;;;;;;;;;;4987268;28;20131;-59
2022/03/20 13:12:00;;;;;;;27.17;10.43;;;;;;;;;;5010572;28;20107;-58
2022/03/20 13:14:27;;;;;;;27.58;11.50;;;;;;;;;;5006392;28;20138;-61
2022/03/20 13:16:55;;;;;;;26.05;10.35;;;;;;;;;;5030437;28;20049;-58
2022/03/20 13:19:28;;;;;;;23.35;10.02;;;;;;;;;;5022972;28;20068;-58
2022/03/20 13:21:55;;;;;;;23.92;9.98;;;;;;;;;;5009643;28;20053;-59
2022/03/20 13:24:32;;;;;;;28.25;11.40;;;;;;;;;;5012205;28;20049;-58
2022/03/20 13:27:01;;;;;;;27.85;11.50;;;;;;;;;;5012115;28;20073;-58
2022/03/20 13:29:28;;;;;;;27.80;11.23;;;;;;;;;;5010312;28;20506;-61
2022/03/20 13:32:06;;;;;;;28.35;12.68;;;;;;;;;;4986453;28;20137;-61
2022/03/20 13:34:34;;;;;;;25.98;10.60;;;;;;;;;;4997806;28;20061;-61
2022/03/20 13:37:11;;;;;;;28.20;11.65;;;;;;;;;;5004170;28;20064;-60
2022/03/20 13:39:38;;;;;;;21.80;8.80;;;;;;;;;;5013066;28;20053;-59
2022/03/20 13:42:18;;;;;;;21.75;9.23;;;;;;;;;;5008274;28;20174;-60
2022/03/20 13:44:46;;;;;;;21.35;9.07;;;;;;;;;;5013266;28;20053;-62
2022/03/20 13:47:14;;;;;;;33.75;13.32;;;;;;;;;;5004258;28;20180;-59
2022/03/20 13:49:41;;;;;;;22.05;9.02;;;;;;;;;;5012280;28;20064;-59
2022/03/20 13:52:08;;;;;;;28.08;10.82;;;;;;;;;;5019676;28;20057;-59
2022/03/20 13:54:39;;;;;;;28.35;10.00;;;;;;;;;;5032230;28;20103;-60
2022/03/20 13:57:07;;;;;;;30.00;12.68;;;;;;;;;;5013856;28;20049;-59
2022/03/20 13:59:48;;;;;;;24.13;9.63;;;;;;;;;;5013767;28;20112;-59
2022/03/20 14:02:15;;;;;;;30.20;13.25;;;;;;;;;;5014782;28;20439;-59
2022/03/20 14:04:42;;;;;;;24.55;10.38;;;;;;;;;;5012435;28;20057;-59
2022/03/20 14:07:17;;;;;;;21.52;8.77;;;;;;;;;;5006017;28;20076;-60
2022/03/20 14:09:44;;;;;;;20.63;9.38;;;;;;;;;;5012703;28;20498;-60
2022/03/20 14:12:30;;;;;;;21.38;7.57;;;;;;;;;;5021813;28;20045;-60
2022/03/20 14:14:59;;;;;;;23.08;7.75;;;;;;;;;;5032344;28;20059;-60
2022/03/20 14:17:42;;;;;;;25.35;9.30;;;;;;;;;;5013351;28;20053;-59
2022/03/20 14:20:10;;;;;;;21.05;9.00;;;;;;;;;;5013001;28;20065;-59
2022/03/20 14:22:47;;;;;;;22.52;9.68;;;;;;;;;;5007932;28;20065;-62
2022/03/20 14:25:34;;;;;;;22.02;9.50;;;;;;;;;;5012907;28;20052;-60
2022/03/20 14:28:01;;;;;;;22.58;9.60;;;;;;;;;;4996545;28;20065;-60
2022/03/20 14:41:30;;;;;;;23.25;9.15;;;;;;;;;;5023080;28;20057;-59
2022/03/20 14:44:07;;;;;;;24.17;10.48;;;;;;;;;;5006676;28;20068;-59
2022/03/20 14:46:35;;;;;;;30.73;11.07;;;;;;;;;;5011545;28;20049;-59
2022/03/20 14:49:03;;;;;;;26.38;10.88;;;;;;;;;;5001837;28;20116;-58
2022/03/20 14:51:38;;;;;;;24.75;10.65;;;;;;;;;;5014910;28;20045;-59
2022/03/20 14:54:05;;;;;;;32.63;11.70;;;;;;;;;;5006616;28;20065;-58
2022/03/20 14:56:33;;;;;;;22.17;10.27;;;;;;;;;;5014158;28;20059;-60
2022/03/20 14:59:00;;;;;;;27.20;11.77;;;;;;;;;;5009361;28;20111;-59
2022/03/20 15:01:27;;;;;;;25.25;10.80;;;;;;;;;;5001715;28;20053;-60
2022/03/20 15:03:55;;;;;;;26.25;11.23;;;;;;;;;;5012093;28;20068;-60
2022/03/20 15:06:24;;;;;;;32.35;12.68;;;;;;;;;;5002580;28;20163;-60
2022/03/20 15:11:36;;;;;;;26.25;11.25;;;;;;;;;;5001048;28;20072;-59
2022/03/20 15:14:04;;;;;;;29.02;11.85;;;;;;;;;;5011927;28;20049;-59
2022/03/20 15:16:31;;;;;;;28.83;11.23;;;;;;;;;;5010393;28;20053;-59
2022/03/20 15:18:59;;;;;;;27.48;12.02;;;;;;;;;;4994699;28;20068;-60
2022/03/20 15:21:26;;;;;;;35.15;14.38;;;;;;;;;;5011024;28;20049;-65
2022/03/20 15:23:53;;;;;;;37.03;15.02;;;;;;;;;;5000979;28;20057;-61
2022/03/20 15:26:19;;;;;;;26.52;12.35;;;;;;;;;;5011317;28;20056;-62
2022/03/20 15:28:46;;;;;;;34.42;15.40;;;;;;;;;;5001784;28;20072;-61
2022/03/20 15:31:15;;;;;;;32.28;13.30;;;;;;;;;;5011277;28;20060;-57